Skip Navigation LinksHome page > Weather > Current weather Skip Navigation Links

Current Weather

San Francisco International, San Francisco

For information only: do not use for flight planning or navigation.
Latest weather
Observation time Thursday, September 18, 2014 7:56 PM PDT
Local time Thursday, September 18, 2014 8:44 PM PDT
Flight conditions Visual Meteorological Conditions
Winds
Wind direction West-Northwest (300°)
Wind speed 7 mph
Visibility 10 mi.
Sky condition
Ceiling unlimited
Cloud layer few clouds 1,200 ft.
Temperature 70°F
Dewpoint 62°F
Altimeter 29.85 in.Hg
Pressure change last 3 hours-0.02 in.Hg
Pressure rising more quickly
Derived measurements
Relative humidity 76%
Density altitude 1068 ft.
Sea-level pressure 29.85 in.Hg
Remarks
Automated weather observing station with precipitation discriminator.
METAR KSFO 190256Z 30006KT 10SM FEW012 21/17 A2985 RMK AO2 SLP107 T02110167 53006

Settings

Location code

InnerDrive.Weather 4.0.5372.0 Release CLR 4.0.30319.34014
Copyright ©2014 Inner Drive Technology. All rights reserved. Portions Copyright ©1986-2014 David Braverman.

Find weather

Site navigation


Skip Navigation Links

Place info

Page info

PayPal - The safer, easier way to pay online!

Return home.

Copyright ©2014 Inner Drive Technology. Purveyors of fine, hand-crafted computer software. Page printed 2014-09-19T03:44:37 UTC.